sensor_id;sensor_type;location;lat;lon;timestamp;temperature;humidity
51914;DHT22;37940;53.002;6.930;2022-11-02T00:01:24;12.50;99.90
51914;DHT22;37940;53.002;6.930;2022-11-02T00:03:51;12.60;99.90
51914;DHT22;37940;53.002;6.930;2022-11-02T00:06:17;12.50;99.90
51914;DHT22;37940;53.002;6.930;2022-11-02T00:08:42;12.50;99.90
51914;DHT22;37940;53.002;6.930;2022-11-02T00:11:08;12.60;99.90
51914;DHT22;37940;53.002;6.930;2022-11-02T00:13:34;12.60;99.90
51914;DHT22;37940;53.002;6.930;2022-11-02T00:16:01;12.70;99.90
51914;DHT22;37940;53.002;6.930;2022-11-02T00:18:28;12.60;99.90
51914;DHT22;37940;53.002;6.930;2022-11-02T00:20:54;12.60;99.90
51914;DHT22;37940;53.002;6.930;2022-11-02T00:23:21;12.60;99.90
51914;DHT22;37940;53.002;6.930;2022-11-02T00:25:49;12.60;99.90
51914;DHT22;37940;53.002;6.930;2022-11-02T00:28:16;13.00;99.90
51914;DHT22;37940;53.002;6.930;2022-11-02T00:30:43;12.70;99.90
51914;DHT22;37940;53.002;6.930;2022-11-02T00:33:09;12.60;99.90
51914;DHT22;37940;53.002;6.930;2022-11-02T00:35:35;13.00;99.90
51914;DHT22;37940;53.002;6.930;2022-11-02T00:38:01;12.60;99.90
51914;DHT22;37940;53.002;6.930;2022-11-02T00:40:27;12.50;99.90
51914;DHT22;37940;53.002;6.930;2022-11-02T00:42:52;12.50;99.90
51914;DHT22;37940;53.002;6.930;2022-11-02T00:45:18;12.50;99.90
51914;DHT22;37940;53.002;6.930;2022-11-02T00:47:44;12.40;99.90
51914;DHT22;37940;53.002;6.930;2022-11-02T00:50:10;12.40;99.90
51914;DHT22;37940;53.002;6.930;2022-11-02T00:52:38;12.30;99.90
51914;DHT22;37940;53.002;6.930;2022-11-02T00:55:05;12.30;99.90
51914;DHT22;37940;53.002;6.930;2022-11-02T00:57:31;12.30;99.90
51914;DHT22;37940;53.002;6.930;2022-11-02T00:59:56;12.20;99.90
51914;DHT22;37940;53.002;6.930;2022-11-02T01:02:22;12.20;99.90
51914;DHT22;37940;53.002;6.930;2022-11-02T01:04:48;12.10;99.90
51914;DHT22;37940;53.002;6.930;2022-11-02T01:07:13;12.00;99.90
51914;DHT22;37940;53.002;6.930;2022-11-02T01:09:39;12.30;99.90
51914;DHT22;37940;53.002;6.930;2022-11-02T01:12:05;12.00;99.90
51914;DHT22;37940;53.002;6.930;2022-11-02T01:14:30;11.90;99.90
51914;DHT22;37940;53.002;6.930;2022-11-02T01:16:56;11.80;99.90
51914;DHT22;37940;53.002;6.930;2022-11-02T01:19:23;11.80;99.90
51914;DHT22;37940;53.002;6.930;2022-11-02T01:21:48;11.70;99.90
51914;DHT22;37940;53.002;6.930;2022-11-02T01:24:14;11.70;99.90
51914;DHT22;37940;53.002;6.930;2022-11-02T01:26:40;11.60;99.90
51914;DHT22;37940;53.002;6.930;2022-11-02T01:29:05;11.50;99.90
51914;DHT22;37940;53.002;6.930;2022-11-02T01:31:31;11.50;99.90
51914;DHT22;37940;53.002;6.930;2022-11-02T01:33:57;11.50;99.90
51914;DHT22;37940;53.002;6.930;2022-11-02T01:36:22;11.50;99.90
51914;DHT22;37940;53.002;6.930;2022-11-02T01:38:48;11.40;99.90
51914;DHT22;37940;53.002;6.930;2022-11-02T01:41:15;11.40;99.90
51914;DHT22;37940;53.002;6.930;2022-11-02T01:43:42;11.40;99.90
51914;DHT22;37940;53.002;6.930;2022-11-02T01:48:44;11.60;99.90
51914;DHT22;37940;53.002;6.930;2022-11-02T01:51:20;11.40;99.90
51914;DHT22;37940;53.002;6.930;2022-11-02T01:53:47;11.40;99.90
51914;DHT22;37940;53.002;6.930;2022-11-02T01:56:17;11.40;99.90
51914;DHT22;37940;53.002;6.930;2022-11-02T01:58:50;11.30;99.90
51914;DHT22;37940;53.002;6.930;2022-11-02T02:01:17;11.30;99.90
51914;DHT22;37940;53.002;6.930;2022-11-02T02:03:43;11.30;99.90
51914;DHT22;37940;53.002;6.930;2022-11-02T02:06:12;11.30;99.90
51914;DHT22;37940;53.002;6.930;2022-11-02T02:08:40;11.30;99.90
51914;DHT22;37940;53.002;6.930;2022-11-02T02:11:27;11.20;99.90
51914;DHT22;37940;53.002;6.930;2022-11-02T02:22:31;11.10;99.90
51914;DHT22;37940;53.002;6.930;2022-11-02T02:30:59;11.10;99.90
51914;DHT22;37940;53.002;6.930;2022-11-02T02:33:45;11.10;99.90
51914;DHT22;37940;53.002;6.930;2022-11-02T02:36:20;11.10;99.90
51914;DHT22;37940;53.002;6.930;2022-11-02T02:39:04;11.20;99.90
51914;DHT22;37940;53.002;6.930;2022-11-02T02:41:39;11.20;99.90
51914;DHT22;37940;53.002;6.930;2022-11-02T02:44:16;11.20;99.90
51914;DHT22;37940;53.002;6.930;2022-11-02T02:46:49;11.20;99.90
51914;DHT22;37940;53.002;6.930;2022-11-02T02:49:21;11.20;99.90
51914;DHT22;37940;53.002;6.930;2022-11-02T02:51:47;11.30;99.90
51914;DHT22;37940;53.002;6.930;2022-11-02T02:54:20;11.30;99.90
51914;DHT22;37940;53.002;6.930;2022-11-02T02:56:52;11.30;99.90
51914;DHT22;37940;53.002;6.930;2022-11-02T02:59:21;11.30;99.90
51914;DHT22;37940;53.002;6.930;2022-11-02T03:01:48;11.30;99.90
51914;DHT22;37940;53.002;6.930;2022-11-02T03:04:14;11.30;99.90
51914;DHT22;37940;53.002;6.930;2022-11-02T03:06:47;11.30;99.90
51914;DHT22;37940;53.002;6.930;2022-11-02T03:09:40;11.30;99.90
51914;DHT22;37940;53.002;6.930;2022-11-02T03:23:34;11.30;99.90
51914;DHT22;37940;53.002;6.930;2022-11-02T03:34:25;11.10;99.90
51914;DHT22;37940;53.002;6.930;2022-11-02T03:37:38;11.00;99.90
51914;DHT22;37940;53.002;6.930;2022-11-02T03:39:42;10.90;99.90
51914;DHT22;37940;53.002;6.930;2022-11-02T03:42:12;10.80;99.90
51914;DHT22;37940;53.002;6.930;2022-11-02T03:44:39;10.80;99.90
51914;DHT22;37940;53.002;6.930;2022-11-02T03:47:09;10.70;99.90
51914;DHT22;37940;53.002;6.930;2022-11-02T03:49:37;10.80;99.90
51914;DHT22;37940;53.002;6.930;2022-11-02T03:52:05;10.60;99.90
51914;DHT22;37940;53.002;6.930;2022-11-02T03:57:42;10.50;99.90
51914;DHT22;37940;53.002;6.930;2022-11-02T04:00:17;10.50;99.90
51914;DHT22;37940;53.002;6.930;2022-11-02T04:02:53;10.40;99.90
51914;DHT22;37940;53.002;6.930;2022-11-02T04:05:19;10.40;99.90
51914;DHT22;37940;53.002;6.930;2022-11-02T04:07:47;10.50;99.90
51914;DHT22;37940;53.002;6.930;2022-11-02T04:10:33;10.30;99.90
51914;DHT22;37940;53.002;6.930;2022-11-02T04:12:59;10.30;99.90
51914;DHT22;37940;53.002;6.930;2022-11-02T04:15:43;10.20;99.90
51914;DHT22;37940;53.002;6.930;2022-11-02T04:18:08;10.20;99.90
51914;DHT22;37940;53.002;6.930;2022-11-02T04:20:53;10.20;99.90
51914;DHT22;37940;53.002;6.930;2022-11-02T04:23:18;10.20;99.90
51914;DHT22;37940;53.002;6.930;2022-11-02T04:26:03;10.20;99.90
51914;DHT22;37940;53.002;6.930;2022-11-02T04:28:29;10.20;99.90
51914;DHT22;37940;53.002;6.930;2022-11-02T04:30:57;10.20;99.90
51914;DHT22;37940;53.002;6.930;2022-11-02T04:33:24;10.10;99.90
51914;DHT22;37940;53.002;6.930;2022-11-02T04:36:04;10.10;99.90
51914;DHT22;37940;53.002;6.930;2022-11-02T04:38:31;10.00;99.90
51914;DHT22;37940;53.002;6.930;2022-11-02T04:41:06;10.00;99.90
51914;DHT22;37940;53.002;6.930;2022-11-02T04:43:51;10.00;99.90
51914;DHT22;37940;53.002;6.930;2022-11-02T04:46:17;10.10;99.90
51914;DHT22;37940;53.002;6.930;2022-11-02T04:48:43;10.10;99.90
51914;DHT22;37940;53.002;6.930;2022-11-02T04:51:09;10.20;99.90
51914;DHT22;37940;53.002;6.930;2022-11-02T04:53:34;10.20;99.90
51914;DHT22;37940;53.002;6.930;2022-11-02T04:56:00;10.30;99.90
51914;DHT22;37940;53.002;6.930;2022-11-02T04:58:26;10.20;99.90
51914;DHT22;37940;53.002;6.930;2022-11-02T05:00:52;10.20;99.90
51914;DHT22;37940;53.002;6.930;2022-11-02T05:03:17;10.20;99.90
51914;DHT22;37940;53.002;6.930;2022-11-02T05:05:43;10.20;99.90
51914;DHT22;37940;53.002;6.930;2022-11-02T05:08:09;10.20;99.90
51914;DHT22;37940;53.002;6.930;2022-11-02T05:10:34;10.40;99.90
51914;DHT22;37940;53.002;6.930;2022-11-02T05:13:00;10.40;99.90
51914;DHT22;37940;53.002;6.930;2022-11-02T05:15:26;10.50;99.90
51914;DHT22;37940;53.002;6.930;2022-11-02T05:17:52;10.50;99.90
51914;DHT22;37940;53.002;6.930;2022-11-02T05:20:18;10.70;99.90
51914;DHT22;37940;53.002;6.930;2022-11-02T05:22:44;10.80;99.90
51914;DHT22;37940;53.002;6.930;2022-11-02T05:25:10;11.10;99.90
51914;DHT22;37940;53.002;6.930;2022-11-02T05:27:37;10.70;99.90
51914;DHT22;37940;53.002;6.930;2022-11-02T05:30:03;10.80;99.90
51914;DHT22;37940;53.002;6.930;2022-11-02T05:32:29;10.70;99.90
51914;DHT22;37940;53.002;6.930;2022-11-02T05:34:55;10.70;99.90
51914;DHT22;37940;53.002;6.930;2022-11-02T05:37:21;10.80;99.90
51914;DHT22;37940;53.002;6.930;2022-11-02T05:39:46;10.80;99.90
51914;DHT22;37940;53.002;6.930;2022-11-02T05:42:12;10.80;99.90
51914;DHT22;37940;53.002;6.930;2022-11-02T05:44:38;11.00;99.90
51914;DHT22;37940;53.002;6.930;2022-11-02T05:47:03;10.80;99.90
51914;DHT22;37940;53.002;6.930;2022-11-02T05:49:29;10.80;99.90
51914;DHT22;37940;53.002;6.930;2022-11-02T05:51:55;10.80;99.90
51914;DHT22;37940;53.002;6.930;2022-11-02T05:54:20;10.90;99.90
51914;DHT22;37940;53.002;6.930;2022-11-02T05:56:46;10.80;99.90
51914;DHT22;37940;53.002;6.930;2022-11-02T05:59:12;10.80;99.90
51914;DHT22;37940;53.002;6.930;2022-11-02T06:01:38;10.80;99.90
51914;DHT22;37940;53.002;6.930;2022-11-02T06:04:04;10.80;99.90
51914;DHT22;37940;53.002;6.930;2022-11-02T06:06:30;10.90;99.90
51914;DHT22;37940;53.002;6.930;2022-11-02T06:08:56;10.90;99.90
51914;DHT22;37940;53.002;6.930;2022-11-02T06:11:22;10.70;99.90
51914;DHT22;37940;53.002;6.930;2022-11-02T06:13:49;10.80;99.90
51914;DHT22;37940;53.002;6.930;2022-11-02T06:16:16;10.60;99.90
51914;DHT22;37940;53.002;6.930;2022-11-02T06:18:42;10.50;99.90
51914;DHT22;37940;53.002;6.930;2022-11-02T06:21:08;10.50;99.90
51914;DHT22;37940;53.002;6.930;2022-11-02T06:23:35;10.50;99.90
51914;DHT22;37940;53.002;6.930;2022-11-02T06:26:01;10.50;99.90
51914;DHT22;37940;53.002;6.930;2022-11-02T06:28:28;10.40;99.90
51914;DHT22;37940;53.002;6.930;2022-11-02T06:30:55;10.40;99.90
51914;DHT22;37940;53.002;6.930;2022-11-02T06:33:21;10.40;99.90
51914;DHT22;37940;53.002;6.930;2022-11-02T06:35:52;10.50;99.90
51914;DHT22;37940;53.002;6.930;2022-11-02T06:38:18;10.30;99.90
51914;DHT22;37940;53.002;6.930;2022-11-02T06:40:55;10.40;99.90
51914;DHT22;37940;53.002;6.930;2022-11-02T06:43:21;10.30;99.90
51914;DHT22;37940;53.002;6.930;2022-11-02T06:45:47;10.40;99.90
51914;DHT22;37940;53.002;6.930;2022-11-02T06:48:15;10.30;99.90
51914;DHT22;37940;53.002;6.930;2022-11-02T06:50:41;10.30;99.90
51914;DHT22;37940;53.002;6.930;2022-11-02T06:53:07;10.40;99.90
51914;DHT22;37940;53.002;6.930;2022-11-02T06:55:33;10.40;99.90
51914;DHT22;37940;53.002;6.930;2022-11-02T06:57:58;10.40;99.90
51914;DHT22;37940;53.002;6.930;2022-11-02T07:00:24;10.40;99.90
51914;DHT22;37940;53.002;6.930;2022-11-02T07:03:19;10.40;99.90
51914;DHT22;37940;53.002;6.930;2022-11-02T07:05:52;10.40;99.90
51914;DHT22;37940;53.002;6.930;2022-11-02T07:08:18;10.50;99.90
51914;DHT22;37940;53.002;6.930;2022-11-02T07:10:44;10.90;99.90
51914;DHT22;37940;53.002;6.930;2022-11-02T07:13:10;10.60;99.90
51914;DHT22;37940;53.002;6.930;2022-11-02T07:15:36;10.70;99.90
51914;DHT22;37940;53.002;6.930;2022-11-02T07:18:02;10.70;99.90
51914;DHT22;37940;53.002;6.930;2022-11-02T07:20:28;10.70;99.90
51914;DHT22;37940;53.002;6.930;2022-11-02T07:22:57;10.80;99.90
51914;DHT22;37940;53.002;6.930;2022-11-02T07:25:23;10.80;99.90
51914;DHT22;37940;53.002;6.930;2022-11-02T07:27:49;10.80;99.90
51914;DHT22;37940;53.002;6.930;2022-11-02T07:30:15;10.80;99.90
51914;DHT22;37940;53.002;6.930;2022-11-02T07:32:42;10.90;99.90
51914;DHT22;37940;53.002;6.930;2022-11-02T07:35:09;11.50;99.90
51914;DHT22;37940;53.002;6.930;2022-11-02T07:37:36;10.90;99.90
51914;DHT22;37940;53.002;6.930;2022-11-02T07:40:02;11.30;99.90
51914;DHT22;37940;53.002;6.930;2022-11-02T07:42:28;11.00;99.90
51914;DHT22;37940;53.002;6.930;2022-11-02T07:44:54;11.00;99.90
51914;DHT22;37940;53.002;6.930;2022-11-02T07:47:20;11.00;99.90
51914;DHT22;37940;53.002;6.930;2022-11-02T07:49:45;10.90;99.90
51914;DHT22;37940;53.002;6.930;2022-11-02T07:52:11;11.40;99.90
51914;DHT22;37940;53.002;6.930;2022-11-02T07:54:37;10.90;99.90
51914;DHT22;37940;53.002;6.930;2022-11-02T07:57:02;10.90;99.90
51914;DHT22;37940;53.002;6.930;2022-11-02T07:59:28;10.80;99.90
51914;DHT22;37940;53.002;6.930;2022-11-02T08:01:54;10.80;99.90
51914;DHT22;37940;53.002;6.930;2022-11-02T08:04:19;10.80;99.90
51914;DHT22;37940;53.002;6.930;2022-11-02T08:06:45;10.80;99.90
51914;DHT22;37940;53.002;6.930;2022-11-02T08:09:11;10.80;99.90
51914;DHT22;37940;53.002;6.930;2022-11-02T08:11:36;11.10;99.90
51914;DHT22;37940;53.002;6.930;2022-11-02T08:14:02;11.30;99.90
51914;DHT22;37940;53.002;6.930;2022-11-02T08:16:28;11.00;99.90
51914;DHT22;37940;53.002;6.930;2022-11-02T08:18:54;11.00;99.90
51914;DHT22;37940;53.002;6.930;2022-11-02T08:21:23;10.90;99.90
51914;DHT22;37940;53.002;6.930;2022-11-02T08:23:49;10.90;99.90
51914;DHT22;37940;53.002;6.930;2022-11-02T08:26:15;10.90;99.90
51914;DHT22;37940;53.002;6.930;2022-11-02T08:28:41;10.90;99.90
51914;DHT22;37940;53.002;6.930;2022-11-02T08:31:15;11.00;99.90
51914;DHT22;37940;53.002;6.930;2022-11-02T08:33:42;11.10;99.90
51914;DHT22;37940;53.002;6.930;2022-11-02T08:36:08;11.20;99.90
51914;DHT22;37940;53.002;6.930;2022-11-02T08:38:35;11.40;99.90
51914;DHT22;37940;53.002;6.930;2022-11-02T08:41:00;11.50;99.90
51914;DHT22;37940;53.002;6.930;2022-11-02T08:43:26;11.70;99.90
51914;DHT22;37940;53.002;6.930;2022-11-02T08:45:56;11.80;99.90
51914;DHT22;37940;53.002;6.930;2022-11-02T08:48:22;11.90;99.90
51914;DHT22;37940;53.002;6.930;2022-11-02T08:50:48;11.90;99.90
51914;DHT22;37940;53.002;6.930;2022-11-02T08:53:13;12.00;99.90
51914;DHT22;37940;53.002;6.930;2022-11-02T08:55:39;12.50;99.90
51914;DHT22;37940;53.002;6.930;2022-11-02T08:58:05;12.10;99.90
51914;DHT22;37940;53.002;6.930;2022-11-02T09:00:32;12.10;99.90
51914;DHT22;37940;53.002;6.930;2022-11-02T09:03:09;12.00;99.90
51914;DHT22;37940;53.002;6.930;2022-11-02T09:05:43;12.00;99.90
51914;DHT22;37940;53.002;6.930;2022-11-02T09:08:15;12.30;99.90
51914;DHT22;37940;53.002;6.930;2022-11-02T09:10:42;12.10;99.90
51914;DHT22;37940;53.002;6.930;2022-11-02T09:13:11;12.20;99.90
51914;DHT22;37940;53.002;6.930;2022-11-02T09:15:37;12.30;99.90
51914;DHT22;37940;53.002;6.930;2022-11-02T09:18:05;12.30;99.90
51914;DHT22;37940;53.002;6.930;2022-11-02T09:20:31;12.40;99.90
51914;DHT22;37940;53.002;6.930;2022-11-02T09:22:57;12.50;99.90
51914;DHT22;37940;53.002;6.930;2022-11-02T09:25:22;12.50;99.90
51914;DHT22;37940;53.002;6.930;2022-11-02T09:27:52;12.70;99.90
51914;DHT22;37940;53.002;6.930;2022-11-02T09:30:19;13.00;99.90
51914;DHT22;37940;53.002;6.930;2022-11-02T09:32:55;12.90;99.90
51914;DHT22;37940;53.002;6.930;2022-11-02T09:35:22;12.90;99.90
51914;DHT22;37940;53.002;6.930;2022-11-02T09:37:47;13.00;99.90
51914;DHT22;37940;53.002;6.930;2022-11-02T09:40:22;13.00;99.90
51914;DHT22;37940;53.002;6.930;2022-11-02T09:45:52;13.10;99.90
51914;DHT22;37940;53.002;6.930;2022-11-02T09:48:45;13.10;99.90
51914;DHT22;37940;53.002;6.930;2022-11-02T09:51:19;13.10;99.90
51914;DHT22;37940;53.002;6.930;2022-11-02T09:54:28;13.00;99.90
51914;DHT22;37940;53.002;6.930;2022-11-02T09:57:05;13.00;99.90
51914;DHT22;37940;53.002;6.930;2022-11-02T09:59:33;12.90;99.90
51914;DHT22;37940;53.002;6.930;2022-11-02T10:02:35;12.90;99.90
51914;DHT22;37940;53.002;6.930;2022-11-02T10:05:28;13.00;99.90
51914;DHT22;37940;53.002;6.930;2022-11-02T10:08:08;13.00;99.90
51914;DHT22;37940;53.002;6.930;2022-11-02T10:13:32;13.10;99.90
51914;DHT22;37940;53.002;6.930;2022-11-02T10:16:21;13.10;99.90
51914;DHT22;37940;53.002;6.930;2022-11-02T10:18:51;13.20;99.90
51914;DHT22;37940;53.002;6.930;2022-11-02T10:21:28;13.40;99.90
51914;DHT22;37940;53.002;6.930;2022-11-02T10:23:59;13.60;99.90
51914;DHT22;37940;53.002;6.930;2022-11-02T10:26:32;13.80;99.90
51914;DHT22;37940;53.002;6.930;2022-11-02T10:29:08;13.90;99.90
51914;DHT22;37940;53.002;6.930;2022-11-02T10:31:37;14.10;99.90
51914;DHT22;37940;53.002;6.930;2022-11-02T10:50:47;13.40;99.90
51914;DHT22;37940;53.002;6.930;2022-11-02T10:53:18;13.30;99.90
51914;DHT22;37940;53.002;6.930;2022-11-02T10:58:19;13.20;99.90
51914;DHT22;37940;53.002;6.930;2022-11-02T11:00:46;13.30;99.90
51914;DHT22;37940;53.002;6.930;2022-11-02T11:03:17;13.10;99.90
51914;DHT22;37940;53.002;6.930;2022-11-02T11:08:42;13.00;99.90
51914;DHT22;37940;53.002;6.930;2022-11-02T11:11:26;12.90;99.90
51914;DHT22;37940;53.002;6.930;2022-11-02T11:14:04;12.90;99.90
51914;DHT22;37940;53.002;6.930;2022-11-02T11:16:53;12.80;99.90
51914;DHT22;37940;53.002;6.930;2022-11-02T11:21:48;12.70;99.90
51914;DHT22;37940;53.002;6.930;2022-11-02T11:24:32;12.80;99.90
51914;DHT22;37940;53.002;6.930;2022-11-02T11:27:18;12.90;99.90
51914;DHT22;37940;53.002;6.930;2022-11-02T11:29:55;13.20;99.90
51914;DHT22;37940;53.002;6.930;2022-11-02T11:32:27;13.50;99.90
51914;DHT22;37940;53.002;6.930;2022-11-02T11:34:55;13.80;99.90
51914;DHT22;37940;53.002;6.930;2022-11-02T11:37:22;13.90;99.90
51914;DHT22;37940;53.002;6.930;2022-11-02T11:39:54;14.00;99.90
51914;DHT22;37940;53.002;6.930;2022-11-02T11:42:24;14.10;99.90
51914;DHT22;37940;53.002;6.930;2022-11-02T11:45:32;14.10;99.90
51914;DHT22;37940;53.002;6.930;2022-11-02T11:50:49;14.20;99.90
51914;DHT22;37940;53.002;6.930;2022-11-02T11:53:25;14.30;99.90
51914;DHT22;37940;53.002;6.930;2022-11-02T11:55:56;14.40;99.90
51914;DHT22;37940;53.002;6.930;2022-11-02T11:58:29;14.50;99.90
51914;DHT22;37940;53.002;6.930;2022-11-02T12:06:33;14.80;99.90
51914;DHT22;37940;53.002;6.930;2022-11-02T12:20:15;15.00;99.90
51914;DHT22;37940;53.002;6.930;2022-11-02T12:23:11;14.90;99.90
51914;DHT22;37940;53.002;6.930;2022-11-02T12:25:51;14.80;99.90
51914;DHT22;37940;53.002;6.930;2022-11-02T12:30:57;14.90;99.90
51914;DHT22;37940;53.002;6.930;2022-11-02T12:41:48;14.80;99.90
51914;DHT22;37940;53.002;6.930;2022-11-02T12:44:30;14.80;99.90
51914;DHT22;37940;53.002;6.930;2022-11-02T12:50:31;14.70;99.90
51914;DHT22;37940;53.002;6.930;2022-11-02T12:55:47;14.60;99.90
51914;DHT22;37940;53.002;6.930;2022-11-02T12:58:20;14.50;99.90
51914;DHT22;37940;53.002;6.930;2022-11-02T13:00:49;14.40;99.90
51914;DHT22;37940;53.002;6.930;2022-11-02T13:03:27;14.30;99.90
51914;DHT22;37940;53.002;6.930;2022-11-02T13:05:59;14.20;99.90
51914;DHT22;37940;53.002;6.930;2022-11-02T13:08:57;14.00;99.90
51914;DHT22;37940;53.002;6.930;2022-11-02T13:11:39;13.80;99.90
51914;DHT22;37940;53.002;6.930;2022-11-02T13:14:26;13.70;99.90
51914;DHT22;37940;53.002;6.930;2022-11-02T13:17:02;13.70;99.90
51914;DHT22;37940;53.002;6.930;2022-11-02T13:21:59;13.70;99.90
51914;DHT22;37940;53.002;6.930;2022-11-02T13:24:32;13.70;99.90
51914;DHT22;37940;53.002;6.930;2022-11-02T13:27:02;13.80;99.90
51914;DHT22;37940;53.002;6.930;2022-11-02T13:29:31;14.10;99.90
51914;DHT22;37940;53.002;6.930;2022-11-02T13:32:29;14.00;99.90
51914;DHT22;37940;53.002;6.930;2022-11-02T13:34:58;14.10;99.90
51914;DHT22;37940;53.002;6.930;2022-11-02T13:37:29;14.30;99.90
51914;DHT22;37940;53.002;6.930;2022-11-02T13:40:22;14.30;99.90
51914;DHT22;37940;53.002;6.930;2022-11-02T13:45:26;14.30;99.90
51914;DHT22;37940;53.002;6.930;2022-11-02T13:50:55;14.30;99.90
51914;DHT22;37940;53.002;6.930;2022-11-02T13:53:40;14.20;99.90
51914;DHT22;37940;53.002;6.930;2022-11-02T13:56:21;14.20;99.90
51914;DHT22;37940;53.002;6.930;2022-11-02T13:58:52;14.10;99.90
51914;DHT22;37940;53.002;6.930;2022-11-02T14:01:21;14.00;99.90
51914;DHT22;37940;53.002;6.930;2022-11-02T14:06:15;13.80;99.90
51914;DHT22;37940;53.002;6.930;2022-11-02T14:22:10;13.50;99.90
51914;DHT22;37940;53.002;6.930;2022-11-02T14:27:03;13.40;99.90
51914;DHT22;37940;53.002;6.930;2022-11-02T14:35:28;13.40;99.90
51914;DHT22;37940;53.002;6.930;2022-11-02T14:48:55;13.20;99.90
51914;DHT22;37940;53.002;6.930;2022-11-02T14:51:22;13.30;99.90
51914;DHT22;37940;53.002;6.930;2022-11-02T14:54:14;13.10;99.90
51914;DHT22;37940;53.002;6.930;2022-11-02T14:59:38;12.90;99.90
51914;DHT22;37940;53.002;6.930;2022-11-02T15:02:36;12.90;99.90
51914;DHT22;37940;53.002;6.930;2022-11-02T15:05:05;12.70;99.90
51914;DHT22;37940;53.002;6.930;2022-11-02T15:07:41;12.60;99.90
51914;DHT22;37940;53.002;6.930;2022-11-02T15:12:43;12.50;99.90
51914;DHT22;37940;53.002;6.930;2022-11-02T15:15:40;12.50;99.90
51914;DHT22;37940;53.002;6.930;2022-11-02T15:18:34;12.40;99.90
51914;DHT22;37940;53.002;6.930;2022-11-02T15:26:18;12.20;99.90
51914;DHT22;37940;53.002;6.930;2022-11-02T15:28:48;12.10;99.90
51914;DHT22;37940;53.002;6.930;2022-11-02T15:31:19;12.10;99.90
51914;DHT22;37940;53.002;6.930;2022-11-02T15:33:47;12.00;99.90
51914;DHT22;37940;53.002;6.930;2022-11-02T15:36:32;11.90;99.90
51914;DHT22;37940;53.002;6.930;2022-11-02T15:39:02;11.90;99.90
51914;DHT22;37940;53.002;6.930;2022-11-02T15:42:03;11.80;99.90
51914;DHT22;37940;53.002;6.930;2022-11-02T15:50:40;11.60;99.90
51914;DHT22;37940;53.002;6.930;2022-11-02T16:03:36;11.20;99.90
51914;DHT22;37940;53.002;6.930;2022-11-02T16:06:02;11.20;99.90
51914;DHT22;37940;53.002;6.930;2022-11-02T16:08:33;11.10;99.90
51914;DHT22;37940;53.002;6.930;2022-11-02T16:13:33;11.00;99.90
51914;DHT22;37940;53.002;6.930;2022-11-02T16:16:06;11.10;99.90
51914;DHT22;37940;53.002;6.930;2022-11-02T16:18:37;10.90;99.90
51914;DHT22;37940;53.002;6.930;2022-11-02T16:21:05;10.80;99.90
51914;DHT22;37940;53.002;6.930;2022-11-02T16:23:39;10.80;99.90
51914;DHT22;37940;53.002;6.930;2022-11-02T16:26:06;10.70;99.90
51914;DHT22;37940;53.002;6.930;2022-11-02T16:28:35;10.70;99.90
51914;DHT22;37940;53.002;6.930;2022-11-02T16:33:44;10.60;99.90
51914;DHT22;37940;53.002;6.930;2022-11-02T16:36:17;10.50;99.90
51914;DHT22;37940;53.002;6.930;2022-11-02T16:41:39;10.50;99.90
51914;DHT22;37940;53.002;6.930;2022-11-02T16:44:31;10.50;99.90
51914;DHT22;37940;53.002;6.930;2022-11-02T16:49:35;10.40;99.90
51914;DHT22;37940;53.002;6.930;2022-11-02T16:52:22;10.40;99.90
51914;DHT22;37940;53.002;6.930;2022-11-02T16:54:48;10.40;99.90
51914;DHT22;37940;53.002;6.930;2022-11-02T16:57:30;10.30;99.90
51914;DHT22;37940;53.002;6.930;2022-11-02T17:00:00;10.30;99.90
51914;DHT22;37940;53.002;6.930;2022-11-02T17:02:40;10.30;99.90
51914;DHT22;37940;53.002;6.930;2022-11-02T17:05:24;10.30;99.90
51914;DHT22;37940;53.002;6.930;2022-11-02T17:08:00;10.30;99.90
51914;DHT22;37940;53.002;6.930;2022-11-02T17:10:29;10.20;99.90
51914;DHT22;37940;53.002;6.930;2022-11-02T17:12:57;10.30;99.90
51914;DHT22;37940;53.002;6.930;2022-11-02T17:15:28;10.20;99.90
51914;DHT22;37940;53.002;6.930;2022-11-02T17:20:32;10.20;99.90
51914;DHT22;37940;53.002;6.930;2022-11-02T17:23:03;10.30;99.90
51914;DHT22;37940;53.002;6.930;2022-11-02T17:25:39;10.20;99.90
51914;DHT22;37940;53.002;6.930;2022-11-02T17:30:59;10.30;99.90
51914;DHT22;37940;53.002;6.930;2022-11-02T17:33:32;10.30;99.90
51914;DHT22;37940;53.002;6.930;2022-11-02T17:36:06;10.30;99.90
51914;DHT22;37940;53.002;6.930;2022-11-02T17:38:32;10.40;99.90
51914;DHT22;37940;53.002;6.930;2022-11-02T17:40:59;10.40;99.90
51914;DHT22;37940;53.002;6.930;2022-11-02T17:43:25;10.50;99.90
51914;DHT22;37940;53.002;6.930;2022-11-02T17:45:59;10.50;99.90
51914;DHT22;37940;53.002;6.930;2022-11-02T17:48:26;10.50;99.90
51914;DHT22;37940;53.002;6.930;2022-11-02T17:50:56;10.50;99.90
51914;DHT22;37940;53.002;6.930;2022-11-02T17:53:23;10.50;99.90
51914;DHT22;37940;53.002;6.930;2022-11-02T17:55:49;10.50;99.90
51914;DHT22;37940;53.002;6.930;2022-11-02T17:58:15;10.50;99.90
51914;DHT22;37940;53.002;6.930;2022-11-02T18:00:41;10.50;99.90
51914;DHT22;37940;53.002;6.930;2022-11-02T18:03:14;10.40;99.90
51914;DHT22;37940;53.002;6.930;2022-11-02T18:06:00;10.40;99.90
51914;DHT22;37940;53.002;6.930;2022-11-02T18:08:26;10.30;99.90
51914;DHT22;37940;53.002;6.930;2022-11-02T18:10:51;10.30;99.90
51914;DHT22;37940;53.002;6.930;2022-11-02T18:13:19;10.30;99.90
51914;DHT22;37940;53.002;6.930;2022-11-02T18:15:46;10.30;99.90
51914;DHT22;37940;53.002;6.930;2022-11-02T18:18:12;10.20;99.90
51914;DHT22;37940;53.002;6.930;2022-11-02T18:20:44;10.20;99.90
51914;DHT22;37940;53.002;6.930;2022-11-02T18:23:14;10.20;99.90
51914;DHT22;37940;53.002;6.930;2022-11-02T18:25:41;10.10;99.90
51914;DHT22;37940;53.002;6.930;2022-11-02T18:28:06;10.10;99.90
51914;DHT22;37940;53.002;6.930;2022-11-02T18:30:32;10.10;99.90
51914;DHT22;37940;53.002;6.930;2022-11-02T18:32:59;10.10;99.90
51914;DHT22;37940;53.002;6.930;2022-11-02T18:35:25;10.50;99.90
51914;DHT22;37940;53.002;6.930;2022-11-02T18:37:51;10.00;99.90
51914;DHT22;37940;53.002;6.930;2022-11-02T18:40:19;10.00;99.90
51914;DHT22;37940;53.002;6.930;2022-11-02T18:42:46;10.00;99.90
51914;DHT22;37940;53.002;6.930;2022-11-02T18:45:13;10.00;99.90
51914;DHT22;37940;53.002;6.930;2022-11-02T18:47:39;9.90;99.90
51914;DHT22;37940;53.002;6.930;2022-11-02T18:50:07;9.90;99.90
51914;DHT22;37940;53.002;6.930;2022-11-02T18:52:33;9.90;99.90
51914;DHT22;37940;53.002;6.930;2022-11-02T18:54:59;9.80;99.90
51914;DHT22;37940;53.002;6.930;2022-11-02T18:57:30;9.80;99.90
51914;DHT22;37940;53.002;6.930;2022-11-02T18:59:56;9.80;99.90
51914;DHT22;37940;53.002;6.930;2022-11-02T19:02:21;9.70;99.90
51914;DHT22;37940;53.002;6.930;2022-11-02T19:04:47;9.70;99.90